Time;durP1;ratioP1;P1;durP2;ratioP2;P2;SDS_P1;SDS_P2;PMS_P1;PMS_P2;Temp;Humidity;BMP_temperature;BMP_pressure;BME280_temperature;BME280_humidity;BME280_pressure;Samples;Min_cycle;Max_cycle;Signal;HPM_P1;HPM_P2
2020/12/29 00:02:24;;;;;;;1.57;1.20;;;4.70;99.90;;;;;;5070520;28;20533;-76
2020/12/29 00:04:51;;;;;;;2.13;1.47;;;4.60;99.90;;;;;;5070120;28;20552;-76
2020/12/29 00:07:17;;;;;;;1.57;1.13;;;4.60;99.90;;;;;;5069837;28;20537;-76
2020/12/29 00:09:44;;;;;;;1.20;1.10;;;4.70;99.90;;;;;;5069948;28;20457;-76
2020/12/29 00:12:11;;;;;;;1.30;1.10;;;4.70;1.00;;;;;;5070752;28;20878;-76
2020/12/29 00:14:37;;;;;;;1.40;1.30;;;4.70;1.00;;;;;;5070283;28;20524;-74
2020/12/29 00:17:04;;;;;;;1.27;1.17;;;4.60;99.90;;;;;;5073949;28;20528;-76
2020/12/29 00:19:30;;;;;;;1.03;0.80;;;4.60;99.90;;;;;;5074059;28;20930;-76
2020/12/29 00:21:58;;;;;;;1.47;1.10;;;4.60;99.90;;;;;;5074139;28;20516;-76
2020/12/29 00:24:25;;;;;;;1.13;0.90;;;4.60;99.90;;;;;;5073803;28;20468;-75
2020/12/29 00:26:51;;;;;;;3.40;1.50;;;4.60;1.00;;;;;;5073423;28;20941;-76
2020/12/29 00:29:19;;;;;;;1.70;1.17;;;4.70;1.00;;;;;;5074126;28;20492;-76
2020/12/29 00:31:45;;;;;;;1.20;0.93;;;4.50;99.90;;;;;;5073640;28;20531;-76
2020/12/29 00:34:12;;;;;;;0.80;0.67;;;4.40;1.00;;;;;;5073800;28;20582;-76
2020/12/29 00:36:38;;;;;;;1.87;0.87;;;4.50;1.00;;;;;;5073027;28;20453;-75
2020/12/29 00:39:06;;;;;;;1.10;0.77;;;4.30;1.00;;;;;;5073729;28;20448;-76
2020/12/29 00:41:33;;;;;;;1.13;0.70;;;4.40;1.00;;;;;;5073892;28;20453;-76
2020/12/29 00:43:59;;;;;;;1.70;1.00;;;4.40;1.00;;;;;;5073415;28;20450;-76
2020/12/29 00:46:26;;;;;;;1.70;0.67;;;4.40;1.00;;;;;;5073464;28;20858;-76
2020/12/29 00:48:53;;;;;;;1.10;0.70;;;4.40;1.00;;;;;;5073270;28;20486;-75
2020/12/29 00:51:21;;;;;;;3.90;0.70;;;4.50;1.00;;;;;;5073955;28;20540;-76
2020/12/29 00:53:48;;;;;;;1.10;0.80;;;4.50;1.00;;;;;;5072945;28;20493;-76
2020/12/29 00:56:14;;;;;;;1.17;0.50;;;4.50;1.00;;;;;;5073122;28;20532;-76
2020/12/29 00:58:41;;;;;;;1.53;0.70;;;4.50;1.00;;;;;;5072902;28;20474;-74
2020/12/29 01:01:09;;;;;;;0.80;0.70;;;4.70;1.00;;;;;;5073394;28;20444;-75
2020/12/29 01:03:37;;;;;;;0.67;0.60;;;4.60;1.00;;;;;;5073302;28;21006;-76
2020/12/29 01:06:03;;;;;;;0.80;0.50;;;4.80;1.00;;;;;;5073196;28;20532;-76
2020/12/29 01:08:30;;;;;;;0.80;0.70;;;4.80;1.00;;;;;;5073497;28;20550;-75
2020/12/29 01:10:57;;;;;;;0.70;0.60;;;4.70;1.00;;;;;;5073149;28;20883;-77
2020/12/29 01:13:24;;;;;;;0.80;0.70;;;4.80;1.00;;;;;;5073082;28;20445;-74
2020/12/29 01:15:51;;;;;;;0.90;0.57;;;4.60;1.00;;;;;;5072796;28;20599;-77
2020/12/29 01:18:19;;;;;;;0.90;0.70;;;4.60;42.60;;;;;;5073215;28;20533;-76
2020/12/29 01:20:48;;;;;;;1.20;1.10;;;4.60;97.00;;;;;;5072741;28;20524;-76
2020/12/29 01:23:14;;;;;;;0.83;0.60;;;4.70;99.90;;;;;;5073297;28;20548;-77
2020/12/29 01:25:41;;;;;;;0.90;0.70;;;4.70;99.90;;;;;;5071954;28;20452;-74
2020/12/29 01:28:08;;;;;;;1.07;0.77;;;4.60;99.90;;;;;;5072581;28;20441;-76
2020/12/29 01:30:35;;;;;;;0.70;0.70;;;4.70;99.90;;;;;;5072973;28;20511;-76
2020/12/29 01:33:01;;;;;;;1.10;0.80;;;4.60;99.90;;;;;;5072430;28;20453;-75
2020/12/29 01:35:28;;;;;;;1.13;0.80;;;4.70;99.90;;;;;;5072585;28;20989;-76
2020/12/29 01:37:55;;;;;;;0.80;0.53;;;4.80;99.90;;;;;;5072034;28;21008;-76
2020/12/29 01:40:21;;;;;;;1.10;0.90;;;4.80;99.90;;;;;;5072731;28;20482;-76
2020/12/29 01:42:48;;;;;;;1.00;0.60;;;4.60;99.90;;;;;;5072525;28;20908;-76
2020/12/29 01:45:16;;;;;;;1.03;0.60;;;4.70;99.90;;;;;;5072436;28;20455;-76
2020/12/29 01:47:43;;;;;;;1.47;0.93;;;4.70;99.90;;;;;;5071912;28;20456;-76
2020/12/29 01:50:12;;;;;;;2.47;1.73;;;4.60;99.90;;;;;;5072461;28;20556;-76
2020/12/29 01:52:39;;;;;;;1.30;0.93;;;4.60;99.90;;;;;;5071918;28;20542;-76
2020/12/29 01:55:08;;;;;;;0.70;0.60;;;4.60;99.90;;;;;;5072470;28;20485;-76
2020/12/29 01:57:36;;;;;;;0.50;0.50;;;4.60;99.90;;;;;;5071989;28;20539;-76
2020/12/29 02:00:06;;;;;;;0.60;0.60;;;4.60;99.90;;;;;;5072180;28;20791;-76
2020/12/29 02:02:32;;;;;;;0.80;0.50;;;4.60;99.90;;;;;;5072300;28;20537;-76
2020/12/29 02:04:58;;;;;;;0.93;0.90;;;4.60;99.90;;;;;;5071781;28;20462;-76
2020/12/29 02:07:25;;;;;;;0.83;0.63;;;4.70;99.90;;;;;;5071801;28;20449;-76
2020/12/29 02:09:52;;;;;;;0.50;0.50;;;4.80;99.90;;;;;;5071847;28;20462;-76
2020/12/29 02:12:24;;;;;;;0.70;0.50;;;4.80;99.90;;;;;;5072284;28;20459;-77
2020/12/29 02:14:51;;;;;;;0.73;0.53;;;4.90;99.90;;;;;;5071922;28;20485;-76
2020/12/29 02:17:18;;;;;;;0.70;0.67;;;4.90;99.90;;;;;;5071898;28;20866;-76
2020/12/29 02:19:44;;;;;;;0.70;0.50;;;4.90;99.90;;;;;;5071500;28;21009;-76
2020/12/29 02:22:10;;;;;;;0.60;0.50;;;4.90;99.90;;;;;;5072142;28;20532;-76
2020/12/29 02:24:38;;;;;;;0.80;0.50;;;4.90;27.50;;;;;;5071838;28;20521;-75
2020/12/29 02:27:05;;;;;;;0.70;0.60;;;4.90;13.70;;;;;;5071570;28;20449;-76
2020/12/29 02:29:34;;;;;;;1.07;0.70;;;5.00;44.90;;;;;;5072005;28;20868;-75
2020/12/29 02:32:04;;;;;;;1.80;0.83;;;5.00;1.00;;;;;;5071515;28;20556;-74
2020/12/29 02:34:30;;;;;;;1.10;0.80;;;5.00;36.20;;;;;;5071638;28;20481;-75
2020/12/29 02:36:57;;;;;;;0.80;0.50;;;5.10;42.00;;;;;;5070486;28;20452;-76
2020/12/29 02:39:24;;;;;;;2.60;0.80;;;;;;;;;;5071118;28;20524;-75
2020/12/29 02:41:51;;;;;;;1.33;0.60;;;;;;;;;;5071536;28;20525;-76
2020/12/29 02:44:20;;;;;;;6.03;0.70;;;;;;;;;;5071486;28;20551;-76
2020/12/29 02:46:50;;;;;;;0.50;0.50;;;;;;;;;;5070484;28;20446;-75
2020/12/29 02:49:17;;;;;;;1.00;0.50;;;;;;;;;;5071345;28;21005;-76
2020/12/29 02:51:44;;;;;;;1.00;0.50;;;;;;;;;;5070710;28;20545;-76
2020/12/29 02:54:11;;;;;;;0.70;0.50;;;;;;;;;;5071215;28;20520;-76
2020/12/29 02:56:38;;;;;;;1.33;0.70;;;;;;;;;;5070644;28;20524;-75
2020/12/29 02:59:06;;;;;;;0.50;0.40;;;;;;;;;;5071368;28;20549;-77
2020/12/29 03:01:32;;;;;;;0.80;0.50;;;;;;;;;;5071152;28;20467;-76
2020/12/29 03:03:59;;;;;;;0.90;0.60;;;;;;;;;;5070880;28;20536;-76
2020/12/29 03:06:26;;;;;;;0.63;0.50;;;;;;;;;;5070537;28;20569;-77
2020/12/29 03:08:53;;;;;;;1.00;0.83;;;;;;;;;;5071005;28;20446;-76
2020/12/29 03:11:24;;;;;;;0.60;0.50;;;;;;;;;;5071283;28;20810;-76
2020/12/29 03:13:51;;;;;;;0.50;0.40;;;;;;;;;;5070898;28;20572;-77
2020/12/29 03:16:18;;;;;;;0.60;0.53;;;;;;;;;;5070695;28;20532;-76
2020/12/29 03:18:45;;;;;;;2.20;0.67;;;;;;;;;;5070400;28;20890;-76
2020/12/29 03:21:11;;;;;;;1.33;0.77;;;;;;;;;;5070575;28;20832;-76
2020/12/29 03:23:38;;;;;;;2.70;0.80;;;;;;;;;;5070745;28;20526;-76
2020/12/29 03:26:05;;;;;;;1.07;0.50;;;;;;;;;;5070362;28;20499;-76
2020/12/29 03:28:31;;;;;;;0.70;0.50;;;;;;;;;;5070943;28;20532;-76
2020/12/29 03:30:58;;;;;;;0.60;0.50;;;;;;;;;;5070480;28;20454;-77
2020/12/29 03:33:25;;;;;;;0.60;0.60;;;;;;;;;;5070673;28;20477;-76
2020/12/29 03:35:53;;;;;;;3.90;0.60;;;;;;;;;;5069863;28;20520;-76
2020/12/29 03:38:20;;;;;;;1.00;0.80;;;;;;;;;;5070778;28;20445;-76
2020/12/29 03:40:47;;;;;;;0.70;0.60;;;;;;;;;;5070385;28;20878;-76
2020/12/29 03:43:13;;;;;;;0.50;0.50;;;;;;;;;;5070781;28;20579;-77
2020/12/29 03:45:41;;;;;;;0.50;0.50;;;;;;;;;;5070155;28;20544;-76
2020/12/29 03:48:08;;;;;;;0.63;0.50;;;;;;;;;;5070143;28;20811;-76
2020/12/29 03:50:36;;;;;;;0.57;0.47;;;;;;;;;;5070734;28;20450;-76
2020/12/29 03:53:02;;;;;;;0.50;0.50;;;;;;;;;;5070312;28;20478;-76
2020/12/29 03:55:29;;;;;;;1.20;0.90;;;;;;;;;;5070462;28;20572;-76
2020/12/29 03:57:56;;;;;;;0.60;0.50;;;;;;;;;;5069801;28;20457;-76
2020/12/29 04:00:22;;;;;;;0.50;0.50;;;;;;;;;;5070412;28;20532;-76
2020/12/29 04:02:49;;;;;;;1.20;1.00;;;;;;;;;;5070110;28;20532;-76
2020/12/29 04:05:16;;;;;;;1.17;0.70;;;;;;;;;;5070554;28;20449;-76
2020/12/29 04:07:43;;;;;;;1.07;0.53;;;;;;;;;;5069473;28;20454;-76
2020/12/29 04:10:10;;;;;;;0.80;0.50;;;;;;;;;;5070574;28;20514;-76
2020/12/29 04:12:37;;;;;;;1.43;0.80;;;;;;;;;;5070395;28;20477;-76
2020/12/29 04:15:04;;;;;;;0.50;0.50;;;;;;;;;;5070053;28;20567;-76
2020/12/29 04:17:33;;;;;;;1.00;0.93;;;;;;;;;;5070040;28;20464;-76
2020/12/29 04:20:00;;;;;;;1.53;0.50;;;;;;;;;;5070089;28;20441;-76
2020/12/29 04:22:30;;;;;;;2.77;0.50;;;;;;;;;;5070002;28;20942;-76
2020/12/29 04:24:57;;;;;;;0.77;0.67;;;;;;;;;;5069933;28;20528;-76
2020/12/29 04:27:24;;;;;;;0.80;0.43;;;;;;;;;;5069619;28;20528;-75
2020/12/29 04:29:51;;;;;;;0.50;0.40;;;;;;;;;;5069892;28;20454;-76
2020/12/29 04:32:18;;;;;;;0.90;0.60;;;;;;;;;;5070350;28;21008;-76
2020/12/29 04:34:44;;;;;;;0.97;0.40;;;;;;;;;;5069772;28;20484;-76
2020/12/29 04:37:11;;;;;;;0.53;0.43;;;;;;;;;;5069840;28;20459;-76
2020/12/29 04:39:38;;;;;;;0.90;0.40;;;;;;;;;;5069933;28;20498;-74
2020/12/29 04:42:06;;;;;;;1.07;0.87;;;;;;;;;;5069937;28;20579;-76
2020/12/29 04:44:33;;;;;;;1.20;0.60;;;;;;;;;;5070007;28;20457;-76
2020/12/29 04:46:59;;;;;;;0.90;0.50;;;;;;;;;;5069449;28;20540;-76
2020/12/29 04:49:26;;;;;;;0.93;0.70;;;;;;;;;;5069983;28;20458;-76
2020/12/29 04:51:57;;;;;;;1.23;0.57;;;;;;;;;;5069843;28;20532;-77
2020/12/29 04:54:25;;;;;;;0.50;0.40;;;;;;;;;;5070109;28;20503;-75
2020/12/29 04:56:55;;;;;;;0.73;0.50;;;;;;;;;;5069351;28;20524;-77
2020/12/29 04:59:23;;;;;;;2.13;0.70;;;;;;;;;;5069988;28;20946;-76
2020/12/29 05:01:50;;;;;;;1.30;0.53;;;;;;;;;;5072077;28;20449;-78
2020/12/29 05:04:17;;;;;;;0.53;0.43;;;;;;;;;;5073672;28;20541;-78
2020/12/29 05:06:43;;;;;;;1.23;0.67;;;;;;;;;;5072817;28;20956;-78
2020/12/29 05:09:10;;;;;;;2.30;0.70;;;;;;;;;;5073479;28;20537;-79
2020/12/29 05:11:37;;;;;;;0.80;0.60;;;;;;;;;;5073742;28;20877;-79
2020/12/29 05:14:04;;;;;;;2.17;0.60;;;;;;;;;;5073414;28;20565;-79
2020/12/29 05:16:36;;;;;;;0.80;0.50;;;;;;;;;;5078415;28;20447;-79
2020/12/29 05:19:05;;;;;;;0.90;0.60;;;;;;;;;;5093198;28;20527;-78
2020/12/29 05:21:32;;;;;;;0.50;0.50;;;;;;;;;;5093505;28;20449;-79
2020/12/29 05:24:02;;;;;;;1.33;0.83;;;;;;;;;;5093157;28;20540;-80
2020/12/29 05:26:30;;;;;;;3.77;0.60;;;;;;;;;;5093250;28;20487;-79
2020/12/29 05:28:57;;;;;;;1.73;0.80;;;;;;;;;;5093034;28;20484;-79
2020/12/29 05:31:24;;;;;;;1.53;1.30;;;;;;;;;;5093243;28;20537;-79
2020/12/29 05:33:52;;;;;;;0.80;0.40;;;;;;;;;;5091688;28;20940;-81
2020/12/29 05:36:19;;;;;;;2.03;0.60;;;;;;;;;;5072536;28;20449;-78
2020/12/29 05:38:45;;;;;;;0.80;0.50;;;5.20;1.00;;;;;;5072287;28;20532;-80
2020/12/29 05:41:21;;;;;;;1.27;0.50;;;4.50;99.90;;;;;;5073288;28;20520;-79
2020/12/29 05:44:00;;;;;;;2.00;0.40;;;4.60;99.90;;;;;;5075698;28;20552;-79
2020/12/29 05:46:29;;;;;;;2.63;0.53;;;4.60;99.90;;;;;;5078923;28;20981;-78
2020/12/29 05:48:57;;;;;;;0.57;0.43;;;4.70;99.90;;;;;;5085746;28;20453;-78
2020/12/29 05:51:24;;;;;;;1.50;0.60;;;4.70;99.90;;;;;;5076538;28;20530;-78
2020/12/29 05:53:51;;;;;;;0.50;0.40;;;4.70;99.90;;;;;;5075484;28;20512;-79
2020/12/29 05:56:19;;;;;;;0.93;0.60;;;4.70;99.90;;;;;;5074724;28;20533;-79
2020/12/29 05:58:45;;;;;;;0.50;0.40;;;4.60;99.90;;;;;;5072494;28;20465;-80
2020/12/29 06:01:12;;;;;;;1.03;0.50;;;4.70;99.90;;;;;;5072707;28;20449;-79
2020/12/29 06:03:40;;;;;;;0.60;0.60;;;4.60;99.90;;;;;;5072131;28;20450;-78
2020/12/29 06:06:08;;;;;;;0.70;0.67;;;4.50;99.90;;;;;;5072411;28;20535;-77
2020/12/29 06:08:36;;;;;;;0.60;0.50;;;4.60;99.90;;;;;;5072497;28;20521;-78
2020/12/29 06:11:12;;;;;;;2.27;1.00;;;4.50;99.90;;;;;;5072120;28;20444;-78
2020/12/29 06:13:39;;;;;;;0.60;0.40;;;4.50;99.90;;;;;;5072158;28;20527;-78
2020/12/29 06:16:06;;;;;;;0.50;0.50;;;4.40;99.90;;;;;;5071552;28;20623;-78
2020/12/29 06:18:34;;;;;;;1.07;0.60;;;4.30;99.90;;;;;;5072214;28;20448;-78
2020/12/29 06:21:05;;;;;;;6.03;0.60;;;4.50;99.90;;;;;;5071654;28;20453;-77
2020/12/29 06:23:43;;;;;;;0.70;0.50;;;4.40;99.90;;;;;;5072408;28;20457;-79
2020/12/29 06:26:10;;;;;;;0.70;0.60;;;4.40;99.90;;;;;;5071616;28;20455;-78
2020/12/29 06:28:43;;;;;;;0.80;0.63;;;4.50;99.90;;;;;;5072089;28;20456;-79
2020/12/29 06:31:11;;;;;;;0.50;0.43;;;4.50;99.90;;;;;;5072270;28;20460;-77
2020/12/29 06:33:39;;;;;;;0.90;0.50;;;4.50;99.90;;;;;;5071755;28;20454;-76
2020/12/29 06:36:09;;;;;;;1.20;0.80;;;4.50;99.90;;;;;;5071347;28;20838;-78
2020/12/29 06:38:38;;;;;;;1.70;0.60;;;4.50;99.90;;;;;;5071883;28;20524;-79
2020/12/29 06:41:07;;;;;;;1.00;0.67;;;4.50;99.90;;;;;;5071556;28;20487;-78
2020/12/29 06:43:34;;;;;;;0.60;0.60;;;4.50;99.90;;;;;;5072026;28;20824;-79
2020/12/29 06:46:11;;;;;;;0.70;0.60;;;4.50;99.90;;;;;;5070629;28;20494;-77
2020/12/29 06:48:38;;;;;;;0.80;0.50;;;4.60;99.90;;;;;;5071095;28;20445;-78
2020/12/29 06:51:26;;;;;;;2.37;0.90;;;4.50;99.90;;;;;;5071459;28;20500;-80
2020/12/29 06:53:54;;;;;;;1.30;0.57;;;4.50;99.90;;;;;;5070655;28;20571;-79
2020/12/29 06:56:20;;;;;;;0.90;0.50;;;4.60;99.90;;;;;;5071216;28;20539;-80
2020/12/29 06:58:46;;;;;;;1.23;0.80;;;4.60;99.90;;;;;;5071101;28;20488;-79
2020/12/29 07:01:20;;;;;;;1.63;0.50;;;4.60;99.90;;;;;;5071385;28;20568;-79
2020/12/29 07:03:48;;;;;;;1.73;0.77;;;4.60;99.90;;;;;;5070913;28;20480;-78
2020/12/29 07:06:14;;;;;;;1.63;0.53;;;4.60;99.90;;;;;;5071094;28;20470;-79
2020/12/29 07:08:40;;;;;;;1.03;0.70;;;4.50;99.90;;;;;;5070844;28;20481;-76
2020/12/29 07:11:17;;;;;;;3.57;0.90;;;4.60;99.90;;;;;;5071198;28;20452;-79
2020/12/29 07:13:48;;;;;;;1.07;0.67;;;4.60;99.90;;;;;;5070565;28;20449;-79
2020/12/29 07:16:21;;;;;;;0.97;0.50;;;4.70;99.90;;;;;;5070623;28;20494;-79
2020/12/29 07:18:48;;;;;;;1.27;0.87;;;4.70;99.90;;;;;;5070637;28;20449;-79
2020/12/29 07:21:25;;;;;;;0.60;0.50;;;4.80;99.90;;;;;;5071183;28;20449;-79
2020/12/29 07:23:52;;;;;;;1.33;0.70;;;4.80;99.90;;;;;;5070261;28;20453;-79
2020/12/29 07:26:21;;;;;;;0.60;0.60;;;4.70;99.90;;;;;;5070584;28;20484;-79
2020/12/29 07:28:51;;;;;;;0.70;0.50;;;4.70;99.90;;;;;;5070559;28;20933;-78
2020/12/29 07:31:17;;;;;;;0.60;0.60;;;4.80;99.90;;;;;;5071028;28;20899;-81
2020/12/29 07:33:52;;;;;;;1.03;0.50;;;4.80;99.90;;;;;;5070469;28;20547;-78
2020/12/29 07:36:18;;;;;;;1.10;0.77;;;4.80;99.90;;;;;;5070545;28;20897;-79
2020/12/29 07:38:47;;;;;;;0.90;0.60;;;4.90;99.90;;;;;;5070242;28;20591;-78
2020/12/29 07:41:15;;;;;;;0.70;0.53;;;5.00;99.90;;;;;;5070724;28;20972;-78
2020/12/29 07:43:43;;;;;;;3.50;0.70;;;5.00;99.90;;;;;;5070170;28;20552;-77
2020/12/29 07:46:10;;;;;;;1.13;0.50;;;5.00;99.90;;;;;;5070393;28;20445;-78
2020/12/29 07:48:37;;;;;;;3.37;0.97;;;5.00;99.90;;;;;;5070796;28;20825;-81
2020/12/29 07:51:04;;;;;;;1.30;0.70;;;5.00;81.50;;;;;;5070672;28;20523;-77
2020/12/29 07:53:31;;;;;;;1.30;0.50;;;4.90;66.90;;;;;;5070682;28;20564;-78
2020/12/29 07:55:59;;;;;;;0.90;0.70;;;5.00;99.90;;;;;;5069612;28;20564;-81
2020/12/29 07:58:25;;;;;;;0.60;0.50;;;5.00;99.90;;;;;;5070386;28;20525;-78
2020/12/29 08:00:53;;;;;;;0.60;0.50;;;4.90;83.20;;;;;;5070550;28;20665;-78
2020/12/29 08:03:19;;;;;;;0.77;0.50;;;5.00;90.60;;;;;;5070663;28;20502;-78
2020/12/29 08:05:46;;;;;;;1.03;0.60;;;4.90;95.80;;;;;;5069740;28;20624;-80
2020/12/29 08:08:14;;;;;;;0.77;0.60;;;4.90;85.60;;;;;;5070769;28;20461;-78
2020/12/29 08:10:42;;;;;;;1.37;0.70;;;4.90;94.70;;;;;;5080898;28;20452;-76
2020/12/29 08:13:10;;;;;;;1.10;0.70;;;4.90;99.90;;;;;;5090641;28;20543;-78
2020/12/29 08:15:39;;;;;;;3.00;0.90;;;4.90;93.70;;;;;;5090174;28;20524;-80
2020/12/29 08:18:08;;;;;;;1.80;0.60;;;5.00;99.90;;;;;;5090486;28;20443;-80
2020/12/29 08:20:42;;;;;;;2.20;0.90;;;5.10;99.90;;;;;;5090573;28;20472;-80
2020/12/29 08:23:09;;;;;;;1.63;1.00;;;5.30;99.90;;;;;;5090586;28;20451;-76
2020/12/29 08:25:35;;;;;;;1.67;0.83;;;5.40;99.90;;;;;;5090137;28;20466;-78
2020/12/29 08:28:04;;;;;;;2.90;0.73;;;5.50;99.90;;;;;;5090409;28;20473;-78
2020/12/29 08:30:31;;;;;;;1.37;0.80;;;5.40;18.70;;;;;;5090321;28;20523;-76
2020/12/29 08:32:59;;;;;;;1.23;0.73;;;5.40;25.50;;;;;;5090147;28;20527;-80
2020/12/29 08:35:28;;;;;;;2.00;0.80;;;5.40;1.00;;;;;;5090040;28;20480;-76
2020/12/29 08:38:07;;;;;;;1.00;0.60;;;5.40;1.00;;;;;;5093968;28;20531;-76
2020/12/29 08:40:36;;;;;;;1.83;0.80;;;5.50;48.40;;;;;;5094258;28;20519;-78
2020/12/29 08:43:02;;;;;;;0.60;0.60;;;5.50;1.00;;;;;;5094052;28;20456;-76
2020/12/29 08:45:29;;;;;;;2.50;1.20;;;5.40;46.20;;;;;;5093781;28;20535;-77
2020/12/29 08:47:57;;;;;;;5.40;3.90;;;5.40;99.90;;;;;;5093791;28;20523;-76
2020/12/29 08:50:29;;;;;;;1.53;0.90;;;5.30;99.90;;;;;;5093758;28;20444;-76
2020/12/29 08:53:04;;;;;;;3.80;0.90;;;5.10;99.90;;;;;;5093566;28;20875;-79
2020/12/29 08:55:32;;;;;;;1.57;0.70;;;5.00;99.90;;;;;;5093442;28;20602;-80
2020/12/29 08:58:00;;;;;;;2.60;1.13;;;4.90;99.90;;;;;;5093489;28;20531;-78
2020/12/29 09:00:28;;;;;;;4.20;1.27;;;4.90;99.90;;;;;;5087041;28;20467;-78
2020/12/29 09:02:54;;;;;;;1.80;1.00;;;4.90;99.90;;;;;;5073017;28;20532;-77
2020/12/29 09:05:22;;;;;;;3.20;1.27;;;5.00;99.90;;;;;;5073322;28;20541;-77
2020/12/29 09:07:50;;;;;;;1.33;0.70;;;5.00;99.90;;;;;;5073430;28;20585;-77
2020/12/29 09:10:17;;;;;;;1.53;0.90;;;5.00;99.90;;;;;;5073897;28;20455;-79
2020/12/29 09:12:44;;;;;;;1.37;0.80;;;4.80;99.90;;;;;;5073188;28;20539;-77
2020/12/29 09:15:11;;;;;;;7.83;1.00;;;4.60;99.90;;;;;;5072917;28;20946;-77
2020/12/29 09:17:40;;;;;;;2.97;0.77;;;4.60;99.90;;;;;;5072856;28;20536;-76
2020/12/29 09:20:15;;;;;;;2.87;0.90;;;4.60;99.90;;;;;;5081625;28;20443;-79
2020/12/29 09:22:53;;;;;;;1.00;0.90;;;4.60;99.90;;;;;;5093019;28;20543;-77
2020/12/29 09:25:31;;;;;;;1.37;0.80;;;4.70;99.90;;;;;;5093424;28;20907;-79
2020/12/29 09:28:19;;;;;;;0.90;0.60;;;4.60;99.90;;;;;;5093251;28;20779;-80
2020/12/29 09:30:47;;;;;;;0.90;0.70;;;4.60;99.90;;;;;;5090691;28;20519;-79
2020/12/29 09:33:21;;;;;;;0.80;0.80;;;4.60;99.90;;;;;;5104018;28;20455;-79
2020/12/29 09:35:48;;;;;;;2.10;0.70;;;4.60;99.90;;;;;;5108826;28;20484;-80
2020/12/29 09:38:15;;;;;;;1.43;1.00;;;4.50;99.90;;;;;;5108198;28;20441;-79
2020/12/29 09:40:42;;;;;;;0.60;0.60;;;4.70;99.90;;;;;;5097442;28;20478;-78
2020/12/29 09:43:09;;;;;;;1.20;0.70;;;4.60;99.90;;;;;;5096688;28;20943;-79
2020/12/29 09:45:35;;;;;;;0.63;0.60;;;4.70;99.90;;;;;;5095461;28;20528;-80
2020/12/29 09:48:02;;;;;;;1.73;1.20;;;4.70;99.90;;;;;;5092475;28;20473;-78
2020/12/29 09:50:28;;;;;;;1.30;1.00;;;4.70;99.90;;;;;;5092933;28;20513;-79
2020/12/29 09:52:54;;;;;;;1.80;1.10;;;4.80;99.90;;;;;;5092531;28;20484;-79
2020/12/29 09:55:22;;;;;;;2.63;0.80;;;4.70;99.90;;;;;;5092560;28;20629;-78
2020/12/29 09:57:48;;;;;;;2.00;1.07;;;4.80;99.90;;;;;;5092790;28;20448;-79
2020/12/29 10:00:14;;;;;;;1.70;1.53;;;4.80;99.90;;;;;;5087532;28;21051;-79
2020/12/29 10:02:41;;;;;;;1.07;0.97;;;4.90;99.90;;;;;;5072044;28;20532;-75
2020/12/29 10:05:07;;;;;;;1.33;0.80;;;4.80;99.90;;;;;;5071966;28;20448;-77
2020/12/29 10:07:34;;;;;;;1.27;0.90;;;4.80;99.90;;;;;;5072549;28;20535;-79
2020/12/29 10:10:00;;;;;;;3.40;0.70;;;4.90;99.90;;;;;;5072103;28;20532;-78
2020/12/29 10:12:27;;;;;;;0.70;0.67;;;4.90;99.90;;;;;;5072187;28;20534;-78
2020/12/29 10:14:55;;;;;;;1.10;0.80;;;5.00;99.90;;;;;;5071777;28;20481;-77
2020/12/29 10:17:22;;;;;;;1.23;1.00;;;5.00;99.90;;;;;;5071756;28;20536;-77
2020/12/29 10:19:49;;;;;;;0.80;0.80;;;5.00;99.90;;;;;;5072005;28;20438;-78
2020/12/29 10:22:15;;;;;;;2.93;1.33;;;5.10;99.90;;;;;;5072258;28;20958;-79
2020/12/29 10:24:42;;;;;;;1.60;0.73;;;5.10;99.90;;;;;;5071354;28;20491;-76
2020/12/29 10:27:08;;;;;;;1.33;0.80;;;5.20;99.90;;;;;;5071690;28;20525;-77
2020/12/29 10:29:35;;;;;;;2.50;0.77;;;5.20;99.90;;;;;;5071943;28;20532;-79
2020/12/29 10:32:02;;;;;;;2.60;0.90;;;5.20;99.90;;;;;;5071492;28;20540;-76
2020/12/29 10:34:28;;;;;;;1.57;0.70;;;5.30;99.90;;;;;;5071585;28;20528;-78
2020/12/29 10:36:55;;;;;;;0.60;0.60;;;5.40;99.90;;;;;;5071190;28;20553;-76
2020/12/29 10:39:21;;;;;;;0.97;0.60;;;5.40;54.00;;;;;;5071749;28;20455;-76
2020/12/29 10:41:47;;;;;;;1.00;0.80;;;5.40;56.70;;;;;;5071448;28;20531;-78
2020/12/29 10:44:14;;;;;;;1.00;0.80;;;5.40;2.70;;;;;;5071171;28;20449;-76
2020/12/29 10:46:45;;;;;;;1.00;0.83;;;5.40;1.00;;;;;;5065907;28;20540;-78
2020/12/29 10:49:12;;;;;;;1.70;0.90;;;5.40;1.00;;;;;;5070233;28;20497;-79
2020/12/29 10:51:38;;;;;;;1.07;0.73;;;5.40;1.00;;;;;;5069929;28;20907;-77
2020/12/29 10:54:05;;;;;;;1.30;0.60;;;5.50;1.00;;;;;;5070602;28;20516;-79
2020/12/29 10:56:31;;;;;;;1.77;0.80;;;5.50;1.00;;;;;;5071101;28;20576;-79
2020/12/29 10:58:58;;;;;;;1.57;1.10;;;5.60;1.00;;;;;;5070224;28;20991;-79
2020/12/29 11:01:25;;;;;;;1.10;0.60;;;5.70;1.00;;;;;;5065824;28;20528;-79
2020/12/29 11:03:52;;;;;;;0.77;0.77;;;5.80;1.00;;;;;;5059565;28;20481;-79
2020/12/29 11:06:20;;;;;;;2.03;0.80;;;5.60;1.00;;;;;;5071131;28;20516;-79
2020/12/29 11:08:47;;;;;;;0.83;0.80;;;5.60;1.00;;;;;;5070231;28;20453;-78
2020/12/29 11:11:14;;;;;;;1.23;1.13;;;5.60;1.00;;;;;;5071022;28;20453;-78
2020/12/29 11:13:41;;;;;;;0.87;0.77;;;5.50;1.00;;;;;;5062069;28;20442;-78
2020/12/29 11:16:12;;;;;;;1.70;0.77;;;5.60;1.00;;;;;;5071208;28;20473;-78
2020/12/29 11:18:39;;;;;;;4.63;0.80;;;5.70;1.00;;;;;;5053690;28;20450;-78
2020/12/29 11:21:06;;;;;;;1.57;0.60;;;5.80;1.00;;;;;;5066096;28;20453;-77
2020/12/29 11:23:32;;;;;;;0.83;0.50;;;5.90;1.00;;;;;;5062979;28;20528;-78
2020/12/29 11:25:59;;;;;;;0.93;0.60;;;6.00;99.90;;;;;;5070036;28;20938;-78
2020/12/29 11:28:26;;;;;;;1.30;0.67;;;6.10;99.90;;;;;;5070529;28;20449;-78
2020/12/29 11:30:52;;;;;;;3.17;0.77;;;6.10;99.90;;;;;;5070394;28;20548;-79
2020/12/29 11:33:18;;;;;;;1.37;0.97;;;6.20;99.90;;;;;;5071093;28;20813;-78
2020/12/29 11:35:48;;;;;;;2.33;0.73;;;6.10;99.90;;;;;;5069809;28;20519;-78
2020/12/29 11:38:15;;;;;;;1.00;0.80;;;6.20;90.90;;;;;;5070659;28;20460;-78
2020/12/29 11:40:42;;;;;;;0.60;0.50;;;6.20;80.60;;;;;;5074667;28;20459;-77
2020/12/29 11:43:08;;;;;;;0.87;0.73;;;6.30;31.50;;;;;;5090861;28;20506;-78
2020/12/29 11:45:35;;;;;;;3.63;0.90;;;;;;;;;;5077635;28;20532;-78
2020/12/29 11:48:02;;;;;;;0.93;0.40;;;6.40;20.00;;;;;;5070354;28;20528;-77
2020/12/29 11:50:28;;;;;;;0.90;0.50;;;6.60;1.00;;;;;;5065633;28;20553;-78
2020/12/29 11:52:54;;;;;;;0.70;0.70;;;6.50;1.00;;;;;;5065957;28;20548;-78
2020/12/29 11:55:22;;;;;;;0.60;0.50;;;6.40;99.90;;;;;;5070070;28;20488;-76
2020/12/29 11:57:48;;;;;;;0.70;0.60;;;6.30;99.90;;;;;;5070223;28;20831;-77
2020/12/29 12:00:15;;;;;;;1.03;0.50;;;6.30;1.00;;;;;;5070781;28;20441;-78
2020/12/29 12:02:41;;;;;;;0.80;0.63;;;6.20;1.00;;;;;;5070432;28;20967;-76
2020/12/29 12:05:07;;;;;;;0.60;0.60;;;6.20;99.90;;;;;;5070127;28;20457;-77
2020/12/29 12:07:34;;;;;;;1.10;0.90;;;6.40;1.00;;;;;;5070726;28;20866;-78
2020/12/29 12:10:02;;;;;;;5.13;0.90;;;6.40;1.00;;;;;;5071229;28;20528;-78
2020/12/29 12:12:29;;;;;;;2.57;0.53;;;6.50;99.90;;;;;;5074677;28;20453;-78
2020/12/29 12:14:55;;;;;;;0.70;0.57;;;6.50;1.00;;;;;;5073650;28;20563;-76
2020/12/29 12:17:22;;;;;;;1.07;0.73;;;6.60;1.00;;;;;;5073977;28;20528;-76
2020/12/29 12:19:48;;;;;;;2.73;0.87;;;6.50;1.00;;;;;;5074307;28;20449;-78
2020/12/29 12:22:14;;;;;;;0.60;0.60;;;6.30;1.00;;;;;;5073749;28;20491;-77
2020/12/29 12:24:41;;;;;;;0.70;0.50;;;6.20;1.00;;;;;;5073739;28;20548;-76
2020/12/29 12:27:07;;;;;;;0.60;0.50;;;6.20;1.00;;;;;;5073473;28;20488;-77
2020/12/29 12:29:35;;;;;;;1.10;0.90;;;6.30;83.50;;;;;;5072411;28;20528;-77
2020/12/29 12:32:01;;;;;;;0.57;0.43;;;6.30;99.90;;;;;;5068147;28;20528;-75
2020/12/29 12:34:27;;;;;;;0.80;0.70;;;6.30;99.90;;;;;;5073971;28;21020;-77
2020/12/29 12:36:54;;;;;;;0.80;0.60;;;6.30;99.90;;;;;;5073341;28;20445;-77
2020/12/29 12:39:21;;;;;;;1.93;0.80;;;6.30;97.60;;;;;;5074248;28;21316;-77
2020/12/29 12:41:47;;;;;;;0.70;0.63;;;6.40;99.90;;;;;;5073996;28;20450;-77
2020/12/29 12:44:13;;;;;;;1.43;0.80;;;6.40;1.00;;;;;;5074031;28;20575;-77
2020/12/29 12:46:42;;;;;;;0.80;0.60;;;6.30;28.40;;;;;;5072945;28;20520;-77
2020/12/29 12:49:08;;;;;;;1.60;0.80;;;6.30;1.00;;;;;;5073905;28;20537;-78
2020/12/29 12:51:35;;;;;;;1.37;0.60;;;6.40;99.90;;;;;;5073850;28;20449;-77
2020/12/29 12:54:01;;;;;;;0.50;0.50;;;6.20;1.00;;;;;;5073381;28;20571;-77
2020/12/29 12:56:30;;;;;;;0.80;0.60;;;6.30;1.00;;;;;;5073166;28;20595;-77
2020/12/29 12:58:57;;;;;;;1.20;0.80;;;6.20;1.00;;;;;;5073510;28;20464;-77
2020/12/29 13:01:23;;;;;;;1.93;0.73;;;6.20;1.00;;;;;;5073497;28;20437;-77
2020/12/29 13:03:50;;;;;;;2.23;0.70;;;6.40;99.90;;;;;;5073313;28;20528;-76
2020/12/29 13:06:23;;;;;;;1.37;0.70;;;6.40;1.00;;;;;;5073007;28;20448;-77
2020/12/29 13:08:50;;;;;;;1.67;0.80;;;6.50;1.00;;;;;;5073236;28;20532;-77
2020/12/29 13:11:17;;;;;;;1.70;0.97;;;6.40;1.00;;;;;;5073486;28;20453;-77
2020/12/29 13:13:43;;;;;;;3.10;1.40;;;6.40;1.00;;;;;;5073041;28;20903;-76
2020/12/29 13:16:09;;;;;;;1.03;0.60;;;6.50;1.00;;;;;;5072797;28;20568;-76
2020/12/29 13:18:36;;;;;;;1.00;0.80;;;6.40;1.00;;;;;;5073469;28;20536;-77
2020/12/29 13:21:04;;;;;;;0.70;0.60;;;6.50;1.00;;;;;;5072121;28;20453;-76
2020/12/29 13:23:30;;;;;;;1.10;0.70;;;6.60;1.00;;;;;;5073045;28;20476;-77
2020/12/29 13:25:56;;;;;;;1.60;0.83;;;6.60;99.90;;;;;;5072460;28;20561;-76